ADDS TAF Data INFO
IDs: Format: Raw Decoded Include METARs

Data at: 1307 UTC 20 Jan 2018

KRIC 201130Z 2012/2112 22006KT P6SM SKC
  FM201500 24010KT P6SM SKC
  FM202300 23004KT P6SM SKC